Lacey Spring, VA (22833)

2:14 AM EDT on August 26, 2016 (GMT -0400)
Lacey Springs MC | | Change Station

Elev 1237 ft 38.52 °N, 78.74 °W | Updated 4 seconds ago

Clear
Clear
70.9 °F
Feels Like 70.9 °F
N
0.0
Wind Variable Wind from SE
Gusts 1.0 mph

Today
High -- | Low -- °F
--% Chance of Precip.
Yesterday
High -- | Low -- °F
Precip. -- in
Pressure 30.12 in
Visibility 5.0 miles
Clouds Clear
Dew Point 69 °F
Humidity 95%
Rainfall 0.00 in
Snow Depth Not available.
6:39 AM 7:53 PM
Last Quarter, 38% visible
METAR KSHD 260555Z AUTO 00000KT 5SM BR CLR 20/20 A3012 RMK AO2 T02010198 10268 20201 403150190
Pressure 30.12 in
Visibility 5.0 miles
Clouds Clear
Dew Point 69 °F
Humidity 95%
Rainfall 0.00 in
Snow Depth Not available.
6:39 AM 7:53 PM
Last Quarter, 38% visible
METAR KSHD 260555Z AUTO 00000KT 5SM BR CLR 20/20 A3012 RMK AO2 T02010198 10268 20201 403150190

10-Day Weather Forecast

Almanac

Astronomy

Aug. 26, 2016 Rise Set
Actual Time
Civil Twilight
Nautical Twilight
Astronomical Twilight
Moon
Length of Visible Light
Length of Day
Tomorrow will be .
, % of the Moon is Illuminated

Today's Extremes

State Highs State Lows

Community

WunderPhotos

Upload Photos

1,935,057 photos uploaded!

WunderBlog® & News

Nearby

Air Quality

  Air Quality AQ Index Pollutant
Not available.

Snow Depth

Station Depth Elevation

Earthquake Activity

City Distance Mag. Time & Date
Minimum magnitude displayed is 2.5.

Coastal Water Temperatures

Place Temperature

Stations

Nearby Weather Stations

Station Location Temp. Windchill Dew Point Humidity Wind Precip. Elev Updated Type
                   

Watches & Warnings

There are currently no watches in effect.